sensor_id;sensor_type;location;lat;lon;timestamp;pressure;altitude;pressure_sealevel;temperature;humidity
59190;BME280;50749;51.636;4.948;2022-11-20T00:00:53;101372.22;;;18.04;49.25
59190;BME280;50749;51.636;4.948;2022-11-20T00:03:19;101367.84;;;18.03;48.99
59190;BME280;50749;51.636;4.948;2022-11-20T00:05:45;101370.97;;;18.01;48.90
59190;BME280;50749;51.636;4.948;2022-11-20T00:08:11;101382.72;;;17.98;49.42
59190;BME280;50749;51.636;4.948;2022-11-20T00:10:38;101381.91;;;17.97;49.37
59190;BME280;50749;51.636;4.948;2022-11-20T00:13:05;101373.84;;;17.92;49.16
59190;BME280;50749;51.636;4.948;2022-11-20T00:15:31;101373.03;;;17.92;49.07
59190;BME280;50749;51.636;4.948;2022-11-20T00:17:56;101382.50;;;17.91;48.91
59190;BME280;50749;51.636;4.948;2022-11-20T00:20:23;101379.25;;;17.89;49.30
59190;BME280;50749;51.636;4.948;2022-11-20T00:22:49;101380.41;;;17.88;48.96
59190;BME280;50749;51.636;4.948;2022-11-20T00:25:16;101371.31;;;17.87;49.06
59190;BME280;50749;51.636;4.948;2022-11-20T00:27:41;101379.09;;;17.85;48.83
59190;BME280;50749;51.636;4.948;2022-11-20T00:30:08;101376.66;;;17.83;49.16
59190;BME280;50749;51.636;4.948;2022-11-20T00:32:33;101376.22;;;17.81;49.32
59190;BME280;50749;51.636;4.948;2022-11-20T00:34:59;101378.19;;;17.81;48.87
59190;BME280;50749;51.636;4.948;2022-11-20T00:37:25;101375.75;;;17.79;49.30
59190;BME280;50749;51.636;4.948;2022-11-20T00:39:51;101374.47;;;17.77;48.91
59190;BME280;50749;51.636;4.948;2022-11-20T00:42:17;101377.25;;;17.77;48.79
59190;BME280;50749;51.636;4.948;2022-11-20T00:44:43;101376.44;;;17.76;49.06
59190;BME280;50749;51.636;4.948;2022-11-20T00:47:09;101375.19;;;17.74;48.58
59190;BME280;50749;51.636;4.948;2022-11-20T00:49:35;101374.69;;;17.72;49.07
59190;BME280;50749;51.636;4.948;2022-11-20T00:52:00;101377.47;;;17.72;48.92
59190;BME280;50749;51.636;4.948;2022-11-20T00:54:26;101378.63;;;17.71;49.04
59190;BME280;50749;51.636;4.948;2022-11-20T00:56:55;101383.72;;;17.69;48.82
59190;BME280;50749;51.636;4.948;2022-11-20T00:59:21;101383.22;;;17.67;48.83
59190;BME280;50749;51.636;4.948;2022-11-20T01:01:46;101373.31;;;17.66;49.19
59190;BME280;50749;51.636;4.948;2022-11-20T01:04:12;101371.69;;;17.64;48.82
59190;BME280;50749;51.636;4.948;2022-11-20T01:06:39;101368.13;;;17.64;48.84
59190;BME280;50749;51.636;4.948;2022-11-20T01:09:09;101370.44;;;17.62;48.78
59190;BME280;50749;51.636;4.948;2022-11-20T01:11:37;101356.13;;;17.60;49.08
59190;BME280;50749;51.636;4.948;2022-11-20T01:14:06;101369.16;;;17.59;48.67
59190;BME280;50749;51.636;4.948;2022-11-20T01:16:44;101374.22;;;17.57;48.77
59190;BME280;50749;51.636;4.948;2022-11-20T01:19:17;101378.13;;;17.56;49.04
59190;BME280;50749;51.636;4.948;2022-11-20T01:21:44;101380.09;;;17.56;48.92
59190;BME280;50749;51.636;4.948;2022-11-20T01:24:13;101363.06;;;17.54;48.98
59190;BME280;50749;51.636;4.948;2022-11-20T01:26:41;101365.34;;;17.52;48.66
59190;BME280;50749;51.636;4.948;2022-11-20T01:29:12;101383.88;;;17.51;48.93
59190;BME280;50749;51.636;4.948;2022-11-20T01:31:38;101374.78;;;17.51;48.73
59190;BME280;50749;51.636;4.948;2022-11-20T01:34:06;101384.22;;;17.50;48.54
59190;BME280;50749;51.636;4.948;2022-11-20T01:36:34;101376.25;;;17.48;48.36
59190;BME280;50749;51.636;4.948;2022-11-20T01:39:04;101368.31;;;17.46;48.73
59190;BME280;50749;51.636;4.948;2022-11-20T01:41:31;101365.91;;;17.45;48.37
59190;BME280;50749;51.636;4.948;2022-11-20T01:44:20;101362.31;;;17.44;48.24
59190;BME280;50749;51.636;4.948;2022-11-20T01:47:01;101361.88;;;17.42;48.41
59190;BME280;50749;51.636;4.948;2022-11-20T01:49:54;101363.00;;;17.41;48.42
59190;BME280;50749;51.636;4.948;2022-11-20T01:52:36;101358.66;;;17.40;48.66
59190;BME280;50749;51.636;4.948;2022-11-20T01:55:07;101368.06;;;17.39;48.51
59190;BME280;50749;51.636;4.948;2022-11-20T01:57:35;101369.25;;;17.38;48.20
59190;BME280;50749;51.636;4.948;2022-11-20T02:00:08;101364.84;;;17.37;48.34
59190;BME280;50749;51.636;4.948;2022-11-20T02:02:36;101360.47;;;17.36;48.50
59190;BME280;50749;51.636;4.948;2022-11-20T02:05:17;101352.50;;;17.35;48.90
59190;BME280;50749;51.636;4.948;2022-11-20T02:07:45;101358.41;;;17.33;48.62
59190;BME280;50749;51.636;4.948;2022-11-20T02:10:12;101351.25;;;17.32;48.50
59190;BME280;50749;51.636;4.948;2022-11-20T02:12:38;101358.75;;;17.32;48.24
59190;BME280;50749;51.636;4.948;2022-11-20T02:15:22;101366.22;;;17.31;48.14
59190;BME280;50749;51.636;4.948;2022-11-20T02:17:48;101361.84;;;17.30;48.15
59190;BME280;50749;51.636;4.948;2022-11-20T02:20:14;101365.75;;;17.29;48.22
59190;BME280;50749;51.636;4.948;2022-11-20T02:22:48;101367.72;;;17.29;48.40
59190;BME280;50749;51.636;4.948;2022-11-20T02:25:17;101366.88;;;17.28;48.00
59190;BME280;50749;51.636;4.948;2022-11-20T02:27:44;101371.59;;;17.27;48.04
59190;BME280;50749;51.636;4.948;2022-11-20T02:30:10;101360.91;;;17.26;48.28
59190;BME280;50749;51.636;4.948;2022-11-20T02:32:38;101356.53;;;17.25;48.45
59190;BME280;50749;51.636;4.948;2022-11-20T02:37:51;101344.19;;;17.22;48.13
59190;BME280;50749;51.636;4.948;2022-11-20T02:40:19;101357.22;;;17.22;48.13
59190;BME280;50749;51.636;4.948;2022-11-20T02:42:44;101350.84;;;17.21;48.43
59190;BME280;50749;51.636;4.948;2022-11-20T02:45:11;101361.13;;;17.21;48.34
59190;BME280;50749;51.636;4.948;2022-11-20T02:47:36;101346.50;;;17.20;48.20
59190;BME280;50749;51.636;4.948;2022-11-20T02:50:04;101355.13;;;17.19;47.95
59190;BME280;50749;51.636;4.948;2022-11-20T02:52:29;101336.91;;;17.18;48.12
59190;BME280;50749;51.636;4.948;2022-11-20T02:54:56;101339.69;;;17.18;48.31
59190;BME280;50749;51.636;4.948;2022-11-20T02:57:21;101337.25;;;17.16;48.25
59190;BME280;50749;51.636;4.948;2022-11-20T02:59:47;101335.31;;;17.17;48.08
59190;BME280;50749;51.636;4.948;2022-11-20T03:02:13;101338.09;;;17.17;47.79
59190;BME280;50749;51.636;4.948;2022-11-20T03:04:39;101332.91;;;17.15;48.17
59190;BME280;50749;51.636;4.948;2022-11-20T03:07:05;101329.34;;;17.15;48.02
59190;BME280;50749;51.636;4.948;2022-11-20T03:09:31;101327.72;;;17.14;48.14
59190;BME280;50749;51.636;4.948;2022-11-20T03:11:56;101327.72;;;17.14;47.77
59190;BME280;50749;51.636;4.948;2022-11-20T03:14:22;101331.63;;;17.13;48.00
59190;BME280;50749;51.636;4.948;2022-11-20T03:16:48;101322.53;;;17.12;47.75
59190;BME280;50749;51.636;4.948;2022-11-20T03:19:14;101318.97;;;17.12;47.98
59190;BME280;50749;51.636;4.948;2022-11-20T03:21:40;101309.06;;;17.11;47.69
59190;BME280;50749;51.636;4.948;2022-11-20T03:24:07;101311.81;;;17.11;47.55
59190;BME280;50749;51.636;4.948;2022-11-20T03:26:33;101307.44;;;17.09;47.81
59190;BME280;50749;51.636;4.948;2022-11-20T03:29:00;101307.44;;;17.09;47.58
59190;BME280;50749;51.636;4.948;2022-11-20T03:31:29;101305.81;;;17.08;47.62
59190;BME280;50749;51.636;4.948;2022-11-20T03:33:56;101295.13;;;17.07;47.67
59190;BME280;50749;51.636;4.948;2022-11-20T03:36:23;101287.16;;;17.05;47.77
59190;BME280;50749;51.636;4.948;2022-11-20T03:38:49;101287.16;;;17.05;47.75
59190;BME280;50749;51.636;4.948;2022-11-20T03:41:21;101287.97;;;17.06;47.64
59190;BME280;50749;51.636;4.948;2022-11-20T03:43:49;101288.31;;;17.04;47.77
59190;BME280;50749;51.636;4.948;2022-11-20T03:46:15;101283.94;;;17.03;47.87
59190;BME280;50749;51.636;4.948;2022-11-20T03:48:42;101288.66;;;17.03;47.68
59190;BME280;50749;51.636;4.948;2022-11-20T03:53:48;101282.31;;;17.02;47.77
59190;BME280;50749;51.636;4.948;2022-11-20T03:56:16;101283.81;;;17.00;47.72
59190;BME280;50749;51.636;4.948;2022-11-20T03:58:43;101281.06;;;17.00;47.45
59190;BME280;50749;51.636;4.948;2022-11-20T04:01:17;101269.19;;;16.99;47.37
59190;BME280;50749;51.636;4.948;2022-11-20T04:03:44;101273.13;;;16.98;47.37
59190;BME280;50749;51.636;4.948;2022-11-20T04:06:19;101284.16;;;16.98;47.52
59190;BME280;50749;51.636;4.948;2022-11-20T04:08:46;101278.66;;;16.98;47.53
59190;BME280;50749;51.636;4.948;2022-11-20T04:11:19;101276.22;;;16.97;47.49
59190;BME280;50749;51.636;4.948;2022-11-20T04:13:48;101275.75;;;16.95;47.53
59190;BME280;50749;51.636;4.948;2022-11-20T04:16:15;101276.09;;;16.93;47.56
59190;BME280;50749;51.636;4.948;2022-11-20T04:18:41;101273.34;;;16.93;47.46
59190;BME280;50749;51.636;4.948;2022-11-20T04:21:06;101270.56;;;16.93;47.36
59190;BME280;50749;51.636;4.948;2022-11-20T04:23:33;101266.19;;;16.92;47.24
59190;BME280;50749;51.636;4.948;2022-11-20T04:26:07;101260.66;;;16.92;47.50
59190;BME280;50749;51.636;4.948;2022-11-20T04:28:33;101264.56;;;16.91;47.44
59190;BME280;50749;51.636;4.948;2022-11-20T04:31:04;101266.53;;;16.90;47.00
59190;BME280;50749;51.636;4.948;2022-11-20T04:33:31;101263.75;;;16.90;47.37
59190;BME280;50749;51.636;4.948;2022-11-20T04:36:03;101262.50;;;16.88;47.37
59190;BME280;50749;51.636;4.948;2022-11-20T04:38:29;101259.75;;;16.88;47.17
59190;BME280;50749;51.636;4.948;2022-11-20T04:41:05;101253.38;;;16.87;47.45
59190;BME280;50749;51.636;4.948;2022-11-20T04:43:32;101251.78;;;16.86;47.11
59190;BME280;50749;51.636;4.948;2022-11-20T04:45:59;101251.78;;;16.86;46.90
59190;BME280;50749;51.636;4.948;2022-11-20T04:48:26;101239.13;;;16.85;47.28
59190;BME280;50749;51.636;4.948;2022-11-20T04:50:52;101235.56;;;16.85;47.24
59190;BME280;50749;51.636;4.948;2022-11-20T04:53:20;101239.13;;;16.85;47.12
59190;BME280;50749;51.636;4.948;2022-11-20T04:55:46;101242.19;;;16.84;47.20
59190;BME280;50749;51.636;4.948;2022-11-20T04:58:12;101237.84;;;16.83;47.08
59190;BME280;50749;51.636;4.948;2022-11-20T05:00:38;101243.34;;;16.83;47.03
59190;BME280;50749;51.636;4.948;2022-11-20T05:03:04;101247.25;;;16.82;47.11
59190;BME280;50749;51.636;4.948;2022-11-20T05:05:30;101244.03;;;16.80;46.79
59190;BME280;50749;51.636;4.948;2022-11-20T05:07:57;101245.63;;;16.81;46.72
59190;BME280;50749;51.636;4.948;2022-11-20T05:10:24;101246.81;;;16.80;46.98
59190;BME280;50749;51.636;4.948;2022-11-20T05:12:50;101245.16;;;16.79;46.86
59190;BME280;50749;51.636;4.948;2022-11-20T05:15:16;101241.63;;;16.78;46.94
59190;BME280;50749;51.636;4.948;2022-11-20T05:17:47;101242.75;;;16.77;47.05
59190;BME280;50749;51.636;4.948;2022-11-20T05:20:13;101230.09;;;16.76;47.08
59190;BME280;50749;51.636;4.948;2022-11-20T05:22:39;101240.31;;;16.76;47.18
59190;BME280;50749;51.636;4.948;2022-11-20T05:25:05;101241.50;;;16.75;46.75
59190;BME280;50749;51.636;4.948;2022-11-20T05:27:31;101236.78;;;16.75;47.11
59190;BME280;50749;51.636;4.948;2022-11-20T05:29:56;101239.88;;;16.74;46.81
59190;BME280;50749;51.636;4.948;2022-11-20T05:32:22;101234.69;;;16.72;46.75
59190;BME280;50749;51.636;4.948;2022-11-20T05:34:51;101235.84;;;16.71;46.68
59190;BME280;50749;51.636;4.948;2022-11-20T05:37:17;101239.06;;;16.73;46.69
59190;BME280;50749;51.636;4.948;2022-11-20T05:39:43;101242.16;;;16.71;47.08
59190;BME280;50749;51.636;4.948;2022-11-20T05:42:09;101237.78;;;16.70;46.76
59190;BME280;50749;51.636;4.948;2022-11-20T05:44:53;101240.53;;;16.70;46.86
59190;BME280;50749;51.636;4.948;2022-11-20T05:47:19;101240.06;;;16.68;46.62
59190;BME280;50749;51.636;4.948;2022-11-20T05:49:45;101241.72;;;16.69;46.62
59190;BME280;50749;51.636;4.948;2022-11-20T05:52:11;101240.06;;;16.68;46.53
59190;BME280;50749;51.636;4.948;2022-11-20T05:54:37;101243.97;;;16.67;46.84
59190;BME280;50749;51.636;4.948;2022-11-20T05:57:03;101249.03;;;16.65;46.83
59190;BME280;50749;51.636;4.948;2022-11-20T05:59:28;101249.84;;;16.66;46.65
59190;BME280;50749;51.636;4.948;2022-11-20T06:01:55;101240.75;;;16.65;46.64
59190;BME280;50749;51.636;4.948;2022-11-20T06:04:21;101239.50;;;16.63;46.77
59190;BME280;50749;51.636;4.948;2022-11-20T06:06:47;101239.50;;;16.63;46.67
59190;BME280;50749;51.636;4.948;2022-11-20T06:09:12;101233.63;;;16.64;46.55
59190;BME280;50749;51.636;4.948;2022-11-20T06:11:38;101234.09;;;16.66;46.44
59190;BME280;50749;51.636;4.948;2022-11-20T06:14:04;101227.91;;;16.69;46.33
59190;BME280;50749;51.636;4.948;2022-11-20T06:16:30;101225.25;;;16.73;46.45
59190;BME280;50749;51.636;4.948;2022-11-20T06:18:56;101232.88;;;16.76;46.60
59190;BME280;50749;51.636;4.948;2022-11-20T06:21:22;101220.31;;;16.79;46.04
59190;BME280;50749;51.636;4.948;2022-11-20T06:23:49;101216.88;;;16.82;45.98
59190;BME280;50749;51.636;4.948;2022-11-20T06:26:21;101208.41;;;16.87;46.06
59190;BME280;50749;51.636;4.948;2022-11-20T06:28:47;101213.72;;;16.92;46.26
59190;BME280;50749;51.636;4.948;2022-11-20T06:31:15;101215.13;;;16.98;46.32
59190;BME280;50749;51.636;4.948;2022-11-20T06:33:42;101209.81;;;17.05;46.05
59190;BME280;50749;51.636;4.948;2022-11-20T06:36:10;101208.47;;;17.12;45.86
59190;BME280;50749;51.636;4.948;2022-11-20T06:38:36;101213.41;;;17.18;46.42
59190;BME280;50749;51.636;4.948;2022-11-20T06:41:07;101214.44;;;17.26;47.13
59190;BME280;50749;51.636;4.948;2022-11-20T06:43:32;101216.97;;;17.31;45.77
59190;BME280;50749;51.636;4.948;2022-11-20T06:45:59;101214.81;;;17.37;46.60
59190;BME280;50749;51.636;4.948;2022-11-20T06:48:26;101213.75;;;17.41;46.00
59190;BME280;50749;51.636;4.948;2022-11-20T06:50:52;101217.13;;;17.47;47.25
59190;BME280;50749;51.636;4.948;2022-11-20T06:53:18;101213.53;;;17.46;46.57
59190;BME280;50749;51.636;4.948;2022-11-20T06:55:47;101215.16;;;17.48;45.68
59190;BME280;50749;51.636;4.948;2022-11-20T06:58:14;101191.22;;;17.52;46.36
59190;BME280;50749;51.636;4.948;2022-11-20T07:00:40;101193.59;;;17.53;45.86
59190;BME280;50749;51.636;4.948;2022-11-20T07:03:08;101197.19;;;17.54;45.21
59190;BME280;50749;51.636;4.948;2022-11-20T07:05:35;101208.25;;;17.54;45.40
59190;BME280;50749;51.636;4.948;2022-11-20T07:08:02;101189.69;;;17.54;45.66
59190;BME280;50749;51.636;4.948;2022-11-20T07:10:28;101188.66;;;17.59;47.66
59190;BME280;50749;51.636;4.948;2022-11-20T07:12:54;101183.13;;;17.59;47.73
59190;BME280;50749;51.636;4.948;2022-11-20T07:15:22;101188.44;;;17.64;47.55
59190;BME280;50749;51.636;4.948;2022-11-20T07:17:48;101191.28;;;17.68;46.65
59190;BME280;50749;51.636;4.948;2022-11-20T07:20:15;101190.72;;;17.74;47.04
59190;BME280;50749;51.636;4.948;2022-11-20T07:22:41;101193.25;;;17.79;47.02
59190;BME280;50749;51.636;4.948;2022-11-20T07:25:08;101188.25;;;17.85;46.87
59190;BME280;50749;51.636;4.948;2022-11-20T07:27:34;101187.59;;;17.88;46.96
59190;BME280;50749;51.636;4.948;2022-11-20T07:30:00;101196.81;;;17.92;46.83
59190;BME280;50749;51.636;4.948;2022-11-20T07:32:26;101196.94;;;17.96;46.60
59190;BME280;50749;51.636;4.948;2022-11-20T07:34:52;101197.03;;;17.99;46.45
59190;BME280;50749;51.636;4.948;2022-11-20T07:37:18;101206.56;;;18.02;46.58
59190;BME280;50749;51.636;4.948;2022-11-20T07:39:44;101204.28;;;18.04;46.84
59190;BME280;50749;51.636;4.948;2022-11-20T07:42:10;101202.75;;;18.07;46.84
59190;BME280;50749;51.636;4.948;2022-11-20T07:44:38;101205.97;;;18.09;46.86
59190;BME280;50749;51.636;4.948;2022-11-20T07:47:04;101206.09;;;18.12;46.40
59190;BME280;50749;51.636;4.948;2022-11-20T07:49:30;101198.34;;;18.18;49.06
59190;BME280;50749;51.636;4.948;2022-11-20T07:51:56;101197.66;;;18.21;47.23
59190;BME280;50749;51.636;4.948;2022-11-20T07:54:22;101192.56;;;18.23;47.12
59190;BME280;50749;51.636;4.948;2022-11-20T07:56:49;101182.78;;;18.26;47.33
59190;BME280;50749;51.636;4.948;2022-11-20T07:59:15;101194.75;;;18.30;47.23
59190;BME280;50749;51.636;4.948;2022-11-20T08:01:41;101195.63;;;18.34;47.40
59190;BME280;50749;51.636;4.948;2022-11-20T08:04:09;101191.38;;;18.36;47.29
59190;BME280;50749;51.636;4.948;2022-11-20T08:06:35;101189.03;;;18.38;47.30
59190;BME280;50749;51.636;4.948;2022-11-20T08:09:02;101195.84;;;18.41;47.30
59190;BME280;50749;51.636;4.948;2022-11-20T08:11:28;101198.28;;;18.43;47.24
59190;BME280;50749;51.636;4.948;2022-11-20T08:14:12;101199.88;;;18.44;47.33
59190;BME280;50749;51.636;4.948;2022-11-20T08:19:05;101208.63;;;18.46;47.23
59190;BME280;50749;51.636;4.948;2022-11-20T08:21:31;101196.75;;;18.45;47.05
59190;BME280;50749;51.636;4.948;2022-11-20T08:23:57;101198.38;;;18.46;46.98
59190;BME280;50749;51.636;4.948;2022-11-20T08:26:24;101205.06;;;18.45;47.27
59190;BME280;50749;51.636;4.948;2022-11-20T08:28:54;101197.53;;;18.46;47.05
59190;BME280;50749;51.636;4.948;2022-11-20T08:31:21;101197.53;;;18.46;47.51
59190;BME280;50749;51.636;4.948;2022-11-20T08:33:47;101197.91;;;18.44;47.86
59190;BME280;50749;51.636;4.948;2022-11-20T08:36:13;101199.06;;;18.43;47.78
59190;BME280;50749;51.636;4.948;2022-11-20T08:38:39;101205.75;;;18.42;47.71
59190;BME280;50749;51.636;4.948;2022-11-20T08:41:05;101206.94;;;18.41;47.71
59190;BME280;50749;51.636;4.948;2022-11-20T08:43:50;101204.97;;;18.42;47.81
59190;BME280;50749;51.636;4.948;2022-11-20T08:46:16;101208.06;;;18.40;47.75
59190;BME280;50749;51.636;4.948;2022-11-20T08:48:43;101196.66;;;18.42;47.82
59190;BME280;50749;51.636;4.948;2022-11-20T08:51:10;101192.75;;;18.43;47.60
59190;BME280;50749;51.636;4.948;2022-11-20T08:53:36;101186.03;;;18.44;47.51
59190;BME280;50749;51.636;4.948;2022-11-20T08:56:02;101198.72;;;18.45;47.69
59190;BME280;50749;51.636;4.948;2022-11-20T08:58:28;101188.88;;;18.47;47.76
59190;BME280;50749;51.636;4.948;2022-11-20T09:00:54;101183.81;;;18.49;47.71
59190;BME280;50749;51.636;4.948;2022-11-20T09:03:20;101174.78;;;18.52;47.95
59190;BME280;50749;51.636;4.948;2022-11-20T09:05:46;101172.94;;;18.56;49.27
59190;BME280;50749;51.636;4.948;2022-11-20T09:08:12;101174.53;;;18.57;48.67
59190;BME280;50749;51.636;4.948;2022-11-20T09:10:38;101171.06;;;18.61;48.38
59190;BME280;50749;51.636;4.948;2022-11-20T09:13:07;101171.63;;;18.66;49.72
59190;BME280;50749;51.636;4.948;2022-11-20T09:15:32;101164.09;;;18.67;49.19
59190;BME280;50749;51.636;4.948;2022-11-20T09:18:03;101153.03;;;18.67;48.28
59190;BME280;50749;51.636;4.948;2022-11-20T09:20:30;101146.22;;;18.64;48.07
59190;BME280;50749;51.636;4.948;2022-11-20T09:22:57;101144.28;;;18.65;48.06
59190;BME280;50749;51.636;4.948;2022-11-20T09:25:23;101143.84;;;18.63;48.74
59190;BME280;50749;51.636;4.948;2022-11-20T09:27:59;101141.06;;;18.63;48.87
59190;BME280;50749;51.636;4.948;2022-11-20T09:30:26;101141.06;;;18.63;48.86
59190;BME280;50749;51.636;4.948;2022-11-20T09:32:52;101133.13;;;18.61;48.85
59190;BME280;50749;51.636;4.948;2022-11-20T09:35:18;101127.56;;;18.61;49.04
59190;BME280;50749;51.636;4.948;2022-11-20T09:37:44;101129.88;;;18.59;49.57
59190;BME280;50749;51.636;4.948;2022-11-20T09:43:35;101112.81;;;18.57;49.27
59190;BME280;50749;51.636;4.948;2022-11-20T09:48:45;101099.25;;;18.52;49.25
59190;BME280;50749;51.636;4.948;2022-11-20T09:51:42;101102.00;;;18.52;49.18
59190;BME280;50749;51.636;4.948;2022-11-20T09:54:17;101086.19;;;18.52;48.93
59190;BME280;50749;51.636;4.948;2022-11-20T09:56:48;101080.66;;;18.52;48.45
59190;BME280;50749;51.636;4.948;2022-11-20T09:59:29;101077.19;;;18.55;48.37
59190;BME280;50749;51.636;4.948;2022-11-20T10:01:59;101056.28;;;18.58;49.40
59190;BME280;50749;51.636;4.948;2022-11-20T10:04:29;101063.91;;;18.61;49.03
59190;BME280;50749;51.636;4.948;2022-11-20T10:07:13;101062.34;;;18.64;48.88
59190;BME280;50749;51.636;4.948;2022-11-20T10:09:51;101066.03;;;18.68;48.83
59190;BME280;50749;51.636;4.948;2022-11-20T10:15:11;101055.84;;;18.72;49.31
59190;BME280;50749;51.636;4.948;2022-11-20T10:20:52;101036.63;;;18.79;49.98
59190;BME280;50749;51.636;4.948;2022-11-20T10:26:25;101021.25;;;18.82;49.47
59190;BME280;50749;51.636;4.948;2022-11-20T10:31:34;101024.50;;;18.84;50.81
59190;BME280;50749;51.636;4.948;2022-11-20T10:34:05;101028.41;;;18.83;49.58
59190;BME280;50749;51.636;4.948;2022-11-20T10:36:40;101019.75;;;18.84;49.25
59190;BME280;50749;51.636;4.948;2022-11-20T10:42:15;101013.31;;;18.80;50.20
59190;BME280;50749;51.636;4.948;2022-11-20T10:44:48;100997.41;;;18.77;50.31
59190;BME280;50749;51.636;4.948;2022-11-20T10:47:27;100999.75;;;18.75;50.34
59190;BME280;50749;51.636;4.948;2022-11-20T10:49:55;101000.09;;;18.73;50.76
59190;BME280;50749;51.636;4.948;2022-11-20T11:01:25;100988.22;;;18.73;49.81
59190;BME280;50749;51.636;4.948;2022-11-20T11:03:53;100988.66;;;18.75;49.67
59190;BME280;50749;51.636;4.948;2022-11-20T11:09:02;100976.16;;;18.81;50.70
59190;BME280;50749;51.636;4.948;2022-11-20T11:11:32;100965.53;;;18.83;49.96
59190;BME280;50749;51.636;4.948;2022-11-20T11:14:15;100963.56;;;18.84;49.66
59190;BME280;50749;51.636;4.948;2022-11-20T11:16:50;100958.63;;;18.77;48.70
59190;BME280;50749;51.636;4.948;2022-11-20T11:19:16;100949.00;;;18.71;48.68
59190;BME280;50749;51.636;4.948;2022-11-20T11:21:47;100948.91;;;18.67;49.77
59190;BME280;50749;51.636;4.948;2022-11-20T11:24:21;100955.56;;;18.63;49.51
59190;BME280;50749;51.636;4.948;2022-11-20T11:27:00;100943.56;;;18.59;49.97
59190;BME280;50749;51.636;4.948;2022-11-20T11:29:30;100935.28;;;18.59;49.76
59190;BME280;50749;51.636;4.948;2022-11-20T11:32:23;100921.06;;;18.60;49.55
59190;BME280;50749;51.636;4.948;2022-11-20T11:35:02;100903.19;;;18.57;49.68
59190;BME280;50749;51.636;4.948;2022-11-20T11:37:34;100896.06;;;18.56;49.24
59190;BME280;50749;51.636;4.948;2022-11-20T11:40:03;100888.84;;;18.52;49.27
59190;BME280;50749;51.636;4.948;2022-11-20T11:42:30;100876.53;;;18.49;48.70
59190;BME280;50749;51.636;4.948;2022-11-20T11:44:58;100877.25;;;18.46;49.04
59190;BME280;50749;51.636;4.948;2022-11-20T11:47:32;100877.53;;;18.41;49.22
59190;BME280;50749;51.636;4.948;2022-11-20T11:53:09;100856.91;;;18.38;50.46
59190;BME280;50749;51.636;4.948;2022-11-20T11:55:44;100851.38;;;18.38;49.53
59190;BME280;50749;51.636;4.948;2022-11-20T11:58:47;100853.41;;;18.42;49.44
59190;BME280;50749;51.636;4.948;2022-11-20T12:04:02;100853.34;;;18.38;48.32
59190;BME280;50749;51.636;4.948;2022-11-20T12:06:30;100849.13;;;18.44;49.70
59190;BME280;50749;51.636;4.948;2022-11-20T12:09:03;100842.69;;;18.56;50.72
59190;BME280;50749;51.636;4.948;2022-11-20T12:11:58;100845.22;;;18.65;50.40
59190;BME280;50749;51.636;4.948;2022-11-20T12:14:37;100839.91;;;18.75;50.06
59190;BME280;50749;51.636;4.948;2022-11-20T12:17:05;100826.22;;;18.83;50.97
59190;BME280;50749;51.636;4.948;2022-11-20T12:19:33;100825.56;;;18.89;50.72
59190;BME280;50749;51.636;4.948;2022-11-20T12:24:59;100814.66;;;18.97;50.09
59190;BME280;50749;51.636;4.948;2022-11-20T12:30:16;100810.69;;;18.98;49.41
59190;BME280;50749;51.636;4.948;2022-11-20T12:43:37;100760.28;;;18.88;53.43
59190;BME280;50749;51.636;4.948;2022-11-20T12:46:37;100761.88;;;18.89;53.09
59190;BME280;50749;51.636;4.948;2022-11-20T12:55:13;100745.03;;;18.98;52.64
59190;BME280;50749;51.636;4.948;2022-11-20T12:57:48;100739.13;;;19.00;52.91
59190;BME280;50749;51.636;4.948;2022-11-20T13:00:20;100729.63;;;19.01;53.19
59190;BME280;50749;51.636;4.948;2022-11-20T13:03:31;100720.97;;;19.02;53.57
59190;BME280;50749;51.636;4.948;2022-11-20T13:08:37;100712.28;;;19.04;53.74
59190;BME280;50749;51.636;4.948;2022-11-20T13:19:15;100696.66;;;19.15;55.28
59190;BME280;50749;51.636;4.948;2022-11-20T13:21:43;100697.31;;;19.08;54.04
59190;BME280;50749;51.636;4.948;2022-11-20T13:29:43;100689.91;;;19.16;53.71
59190;BME280;50749;51.636;4.948;2022-11-20T13:32:18;100681.59;;;19.16;54.01
59190;BME280;50749;51.636;4.948;2022-11-20T13:34:57;100674.91;;;19.17;54.48
59190;BME280;50749;51.636;4.948;2022-11-20T13:37:43;100670.09;;;19.14;55.10
59190;BME280;50749;51.636;4.948;2022-11-20T13:40:19;100661.38;;;19.12;55.72
59190;BME280;50749;51.636;4.948;2022-11-20T13:42:55;100659.75;;;19.11;56.00
59190;BME280;50749;51.636;4.948;2022-11-20T13:45:25;100657.34;;;19.09;56.45
59190;BME280;50749;51.636;4.948;2022-11-20T13:47:53;100653.78;;;19.09;56.15
59190;BME280;50749;51.636;4.948;2022-11-20T13:50:30;100643.50;;;19.09;56.07
59190;BME280;50749;51.636;4.948;2022-11-20T13:55:54;100641.03;;;19.04;56.91
59190;BME280;50749;51.636;4.948;2022-11-20T13:58:44;100628.38;;;19.03;56.10
59190;BME280;50749;51.636;4.948;2022-11-20T14:01:28;100631.50;;;19.02;56.96
59190;BME280;50749;51.636;4.948;2022-11-20T14:03:55;100621.16;;;18.99;56.95
59190;BME280;50749;51.636;4.948;2022-11-20T14:06:31;100613.28;;;19.01;56.53
59190;BME280;50749;51.636;4.948;2022-11-20T14:08:59;100602.94;;;18.98;55.25
59190;BME280;50749;51.636;4.948;2022-11-20T14:11:29;100588.19;;;18.90;54.63
59190;BME280;50749;51.636;4.948;2022-11-20T14:14:15;100580.03;;;18.78;55.55
59190;BME280;50749;51.636;4.948;2022-11-20T14:16:41;100567.31;;;18.73;55.22
59190;BME280;50749;51.636;4.948;2022-11-20T14:19:28;100563.72;;;18.72;55.09
59190;BME280;50749;51.636;4.948;2022-11-20T14:22:14;100557.41;;;18.72;54.74
59190;BME280;50749;51.636;4.948;2022-11-20T14:24:42;100544.72;;;18.71;54.98
59190;BME280;50749;51.636;4.948;2022-11-20T14:27:18;100546.38;;;18.75;54.92
59190;BME280;50749;51.636;4.948;2022-11-20T14:29:46;100551.22;;;18.82;54.34